SBMT

Details ICAO SBMT
Name MARTE
Region Brazil
Timezone America/Sao_Paulo (UTC-3.0)
Plans Departing 177
Arriving 68
Stats Elevation 2,368 ft / 722 m (AMSL)
Location -23.509120° -46.637754°
Runways 1
Magnetic Variation 21.378° W
Sunrise 2018-05-23 09:38:26 UTC / 2018-05-23 06:38:26 Local
Sunset 2018-05-23 20:31:03 UTC / 2018-05-23 17:31:03 Local
Advertisement - Login to hide

Runways

ID Width Length Bearing (true) Bearing (mag) Surface Threshold Offset Overrun Length
12 148 ft / 45 m 5,241 ft / 1,597 m 100.34° 121.72° Asphalt 985 ft / 300 m 0 ft / 0 m
30 148 ft / 45 m 5,241 ft / 1,597 m 280.33° 301.71° Asphalt 490 ft / 149 m 0 ft / 0 m

Map

Weather


0- 5 10 15 20 25 30 35+ Temperature / ° C

Clouds and Precipitation
Forecast for 2018-05-23 12:00 UTC. Updated 4 hours ago

Ground ~20,000 ft ~40,000 ft Winds

METAR

SBMT 231500Z 12004KT 9999 FEW023 19/10 Q1024

TAF

Not found

Frequencies

Ground 121.60 MHz GND
Approach 119.80 MHz SAO PAULO APP
Approach 129.50 MHz SAO PAULO APP
Tower 118.70 MHz TWR
Approach 120.05 MHz SAO PAULO APP
Warning: Do not use this data for real-world aviation or navigation. No guarantee of current accuracy is given.